Time;durP1;ratioP1;P1;durP2;ratioP2;P2;SDS_P1;SDS_P2;PMS_P1;PMS_P2;Temp;Humidity;BMP_temperature;BMP_pressure;BME280_temperature;BME280_humidity;BME280_pressure;Samples;Min_cycle;Max_cycle;Signal;HPM_P1;HPM_P2
2022/05/12 00:00:20;;;;;;;15.13;5.72;;;;;;;;;;5095707;28;20020;-87
2022/05/12 00:02:46;;;;;;;12.88;5.70;;;;;;;;;;5094438;28;20360;-88
2022/05/12 00:05:11;;;;;;;11.57;5.10;;;;;;;;;;5094471;28;20066;-88
2022/05/12 00:07:37;;;;;;;9.02;5.38;;;;;;;;;;5094319;28;20070;-87
2022/05/12 00:10:02;;;;;;;10.40;5.28;;;;;;;;;;5095547;28;20026;-88
2022/05/12 00:12:28;;;;;;;12.68;5.90;;;;;;;;;;5094353;28;20024;-88
2022/05/12 00:14:53;;;;;;;13.55;5.28;;;;;;;;;;5094451;28;20027;-87
2022/05/12 00:17:18;;;;;;;12.65;6.20;;;;;;;;;;5094301;28;20019;-88
2022/05/12 00:19:44;;;;;;;11.82;5.72;;;;;;;;;;5095274;28;20024;-88
2022/05/12 00:22:09;;;;;;;8.73;5.43;;;;;;;;;;5094493;28;20122;-87
2022/05/12 00:24:34;;;;;;;11.77;5.30;;;;;;;;;;5094169;28;20450;-87
2022/05/12 00:26:59;;;;;;;17.05;5.50;;;;;;;;;;5095279;28;20522;-88
2022/05/12 00:29:25;;;;;;;11.30;4.90;;;;;;;;;;5094044;28;20016;-88
2022/05/12 00:31:50;;;;;;;16.30;5.22;;;;;;;;;;5093986;28;20040;-88
2022/05/12 00:34:17;;;;;;;9.95;4.70;;;;;;;;;;5093977;28;20031;-87
2022/05/12 00:36:43;;;;;;;15.02;5.07;;;;;;;;;;5093922;28;20016;-88
2022/05/12 00:39:08;;;;;;;14.00;4.65;;;;;;;;;;5093836;28;20027;-88
2022/05/12 00:41:34;;;;;;;9.43;4.35;;;;;;;;;;5093834;28;20022;-87
2022/05/12 00:44:02;;;;;;;13.15;4.93;;;;;;;;;;5093658;28;20024;-88
2022/05/12 00:46:28;;;;;;;13.02;4.93;;;;;;;;;;5093634;28;20465;-88
2022/05/12 00:48:56;;;;;;;10.77;4.07;;;;;;;;;;5093877;28;20020;-87
2022/05/12 00:51:32;;;;;;;15.07;4.68;;;;;;;;;;5093565;28;20535;-87
2022/05/12 00:53:59;;;;;;;10.20;4.38;;;;;;;;;;5093690;28;20016;-88
2022/05/12 00:56:25;;;;;;;10.32;4.30;;;;;;;;;;5096774;28;20081;-87
2022/05/12 00:58:57;;;;;;;13.00;4.68;;;;;;;;;;5094584;28;20058;-87
2022/05/12 01:01:22;;;;;;;12.18;4.10;;;;;;;;;;5093602;28;20024;-87
2022/05/12 01:03:48;;;;;;;9.00;3.72;;;;;;;;;;5093211;28;20375;-88
2022/05/12 01:06:14;;;;;;;11.93;4.43;;;;;;;;;;5093322;28;20467;-87
2022/05/12 01:08:40;;;;;;;14.80;4.68;;;;;;;;;;5093526;28;20023;-88
2022/05/12 01:11:13;;;;;;;12.10;4.47;;;;;;;;;;5094533;28;20020;-88
2022/05/12 01:13:38;;;;;;;19.95;5.32;;;;;;;;;;5093344;28;20069;-87
2022/05/12 01:16:05;;;;;;;9.75;4.40;;;;;;;;;;5093608;28;20463;-87
2022/05/12 01:18:32;;;;;;;10.45;4.22;;;;;;;;;;5093136;28;20449;-87
2022/05/12 01:20:57;;;;;;;15.50;4.80;;;;;;;;;;5093104;28;20081;-87
2022/05/12 01:23:36;;;;;;;14.13;4.70;;;;;;;;;;5093124;28;20016;-88
2022/05/12 01:26:07;;;;;;;12.60;4.88;;;;;;;;;;5093086;28;20020;-87
2022/05/12 01:28:32;;;;;;;15.80;4.47;;;;;;;;;;5109996;28;20023;-87
2022/05/12 01:30:59;;;;;;;17.55;5.07;;;;;;;;;;5094155;28;20102;-87
2022/05/12 01:33:24;;;;;;;12.25;4.45;;;;;;;;;;5092978;28;20024;-87
2022/05/12 01:35:49;;;;;;;13.93;3.85;;;;;;;;;;5094077;28;20027;-87
2022/05/12 01:38:15;;;;;;;18.60;4.53;;;;;;;;;;5092896;28;20024;-87
2022/05/12 01:40:40;;;;;;;13.68;4.53;;;;;;;;;;5092850;28;20019;-87
2022/05/12 01:43:06;;;;;;;12.05;4.50;;;;;;;;;;5092779;28;20028;-87
2022/05/12 01:45:31;;;;;;;14.15;4.10;;;;;;;;;;5092759;28;20027;-88
2022/05/12 01:47:57;;;;;;;12.68;4.75;;;;;;;;;;5092671;28;20012;-87
2022/05/12 01:50:22;;;;;;;10.18;4.15;;;;;;;;;;5092698;28;20020;-87
2022/05/12 01:52:47;;;;;;;13.82;4.85;;;;;;;;;;5092275;28;20012;-87
2022/05/12 01:55:14;;;;;;;10.88;4.28;;;;;;;;;;5092672;28;20024;-87
2022/05/12 01:57:43;;;;;;;11.40;4.13;;;;;;;;;;5092663;28;20115;-88
2022/05/12 02:00:08;;;;;;;12.57;4.22;;;;;;;;;;5092604;28;20028;-87
2022/05/12 02:02:33;;;;;;;10.60;4.22;;;;;;;;;;5092472;28;20556;-88
2022/05/12 02:04:59;;;;;;;12.15;5.18;;;;;;;;;;5092589;28;20023;-87
2022/05/12 02:07:24;;;;;;;19.08;6.90;;;;;;;;;;5109529;28;20027;-88
2022/05/12 02:09:49;;;;;;;16.90;7.07;;;;;;;;;;5092544;28;20024;-87
2022/05/12 02:12:15;;;;;;;14.07;7.40;;;;;;;;;;5092745;28;20043;-88
2022/05/12 02:14:40;;;;;;;12.65;6.90;;;;;;;;;;5092493;28;20024;-87
2022/05/12 02:17:06;;;;;;;20.80;9.80;;;;;;;;;;5092472;28;20020;-87
2022/05/12 02:19:31;;;;;;;28.08;10.70;;;;;;;;;;5093791;28;20443;-87
2022/05/12 02:21:58;;;;;;;25.55;10.57;;;;;;;;;;5109320;28;20485;-87
2022/05/12 02:24:23;;;;;;;27.30;10.82;;;;;;;;;;5092357;28;20099;-87
2022/05/12 02:26:48;;;;;;;33.17;10.65;;;;;;;;;;5092287;28;20054;-87
2022/05/12 02:29:13;;;;;;;37.13;12.68;;;;;;;;;;5093506;28;20489;-87
2022/05/12 02:31:39;;;;;;;30.55;11.20;;;;;;;;;;5092199;28;20498;-87
2022/05/12 02:34:04;;;;;;;28.50;10.77;;;;;;;;;;5093378;28;20048;-87
2022/05/12 02:36:29;;;;;;;28.90;10.82;;;;;;;;;;5109046;28;20368;-87
2022/05/12 02:38:54;;;;;;;26.30;11.23;;;;;;;;;;5092129;28;20463;-87
2022/05/12 02:41:20;;;;;;;31.67;11.10;;;;;;;;;;5092193;28;20088;-87
2022/05/12 02:43:45;;;;;;;25.50;11.40;;;;;;;;;;5092426;28;20020;-87
2022/05/12 02:46:11;;;;;;;29.60;11.50;;;;;;;;;;5092332;28;20536;-87
2022/05/12 02:48:41;;;;;;;23.70;11.00;;;;;;;;;;5093254;28;20020;-87
2022/05/12 02:51:07;;;;;;;28.33;11.65;;;;;;;;;;5092173;28;20016;-87
2022/05/12 02:53:32;;;;;;;26.95;11.60;;;;;;;;;;5092110;28;20527;-87
2022/05/12 02:55:58;;;;;;;24.27;11.43;;;;;;;;;;5093160;28;20106;-87
2022/05/12 02:58:23;;;;;;;28.70;11.90;;;;;;;;;;5093312;28;20028;-87
2022/05/12 03:00:49;;;;;;;23.10;11.35;;;;;;;;;;5091951;28;20194;-87
2022/05/12 03:03:15;;;;;;;23.70;12.45;;;;;;;;;;5091957;28;20038;-87
2022/05/12 03:05:40;;;;;;;24.55;11.32;;;;;;;;;;5093185;28;20035;-87
2022/05/12 03:08:06;;;;;;;22.85;10.88;;;;;;;;;;5095650;28;20035;-87
2022/05/12 03:10:32;;;;;;;29.20;11.57;;;;;;;;;;5095457;28;20020;-87
2022/05/12 03:12:57;;;;;;;24.05;11.13;;;;;;;;;;5095467;28;20073;-87
2022/05/12 03:15:23;;;;;;;26.15;10.88;;;;;;;;;;5095365;28;20103;-87
2022/05/12 03:17:49;;;;;;;23.98;10.52;;;;;;;;;;5095529;28;20017;-87
2022/05/12 03:20:15;;;;;;;21.65;10.25;;;;;;;;;;5096723;28;20024;-87
2022/05/12 03:22:41;;;;;;;22.45;10.27;;;;;;;;;;5095248;28;20459;-87
2022/05/12 03:25:09;;;;;;;19.80;11.10;;;;;;;;;;5096461;28;20019;-87
2022/05/12 03:27:35;;;;;;;24.25;10.57;;;;;;;;;;5096400;28;20020;-87
2022/05/12 03:30:00;;;;;;;22.67;10.73;;;;;;;;;;5095289;28;20027;-87
2022/05/12 03:32:25;;;;;;;22.00;10.70;;;;;;;;;;5095058;28;20020;-87
2022/05/12 03:34:51;;;;;;;25.85;10.90;;;;;;;;;;5095138;28;20046;-87
2022/05/12 03:37:16;;;;;;;20.58;10.18;;;;;;;;;;5094972;28;20020;-87
2022/05/12 03:39:43;;;;;;;23.80;11.25;;;;;;;;;;5111990;28;20020;-87
2022/05/12 03:42:10;;;;;;;19.80;11.00;;;;;;;;;;5112058;28;20087;-87
2022/05/12 03:44:49;;;;;;;23.17;10.52;;;;;;;;;;5094780;28;20030;-87
2022/05/12 03:47:22;;;;;;;21.17;11.30;;;;;;;;;;5094802;28;20112;-87
2022/05/12 03:49:49;;;;;;;35.13;14.13;;;;;;;;;;5094622;28;20363;-87
2022/05/12 03:52:15;;;;;;;26.42;13.35;;;;;;;;;;5095839;28;20020;-87
2022/05/12 03:54:40;;;;;;;24.55;12.63;;;;;;;;;;5094639;28;20073;-87
2022/05/12 03:57:06;;;;;;;31.02;13.35;;;;;;;;;;5094604;28;20107;-87
2022/05/12 03:59:31;;;;;;;32.33;14.40;;;;;;;;;;5111449;28;20058;-86
2022/05/12 04:01:56;;;;;;;25.52;12.63;;;;;;;;;;5111444;28;20020;-86
2022/05/12 04:04:22;;;;;;;29.73;14.02;;;;;;;;;;5095842;28;20043;-86
2022/05/12 04:06:47;;;;;;;31.35;14.93;;;;;;;;;;5095585;28;20043;-87
2022/05/12 04:09:12;;;;;;;27.08;14.13;;;;;;;;;;5094232;28;20463;-87
2022/05/12 04:11:37;;;;;;;35.75;14.27;;;;;;;;;;5095475;28;20020;-87
2022/05/12 04:14:04;;;;;;;30.05;14.40;;;;;;;;;;5111178;28;20020;-86
2022/05/12 04:16:31;;;;;;;39.13;15.32;;;;;;;;;;5093927;28;20031;-87
2022/05/12 04:18:57;;;;;;;27.35;14.05;;;;;;;;;;5095290;28;20020;-87
2022/05/12 04:21:22;;;;;;;29.33;14.55;;;;;;;;;;5094016;28;20031;-87
2022/05/12 04:23:47;;;;;;;31.33;13.90;;;;;;;;;;5111156;28;20391;-86
2022/05/12 04:26:12;;;;;;;28.45;13.27;;;;;;;;;;5110904;28;20028;-87
2022/05/12 04:28:38;;;;;;;33.95;14.45;;;;;;;;;;5095081;28;20020;-86
2022/05/12 04:31:03;;;;;;;32.92;13.95;;;;;;;;;;5093834;28;20027;-87
2022/05/12 04:36:13;;;;;;;31.67;14.63;;;;;;;;;;5095610;28;20063;-86
2022/05/12 04:38:38;;;;;;;40.15;17.92;;;;;;;;;;5094959;28;20027;-87
2022/05/12 04:41:03;;;;;;;40.55;17.35;;;;;;;;;;5093730;28;20024;-87
2022/05/12 04:43:29;;;;;;;38.25;17.38;;;;;;;;;;5093660;28;20036;-87
2022/05/12 04:45:54;;;;;;;45.72;20.98;;;;;;;;;;5110676;28;20027;-86
2022/05/12 04:48:19;;;;;;;40.03;16.17;;;;;;;;;;5093587;28;20016;-87
2022/05/12 04:50:44;;;;;;;42.83;19.73;;;;;;;;;;5110461;28;20035;-88
2022/05/12 04:53:10;;;;;;;44.22;20.63;;;;;;;;;;5093546;28;20023;-87
2022/05/12 04:55:36;;;;;;;45.13;20.98;;;;;;;;;;5094762;28;20436;-87
2022/05/12 04:58:01;;;;;;;47.55;22.23;;;;;;;;;;5093481;28;20020;-87
2022/05/12 05:00:32;;;;;;;40.42;21.77;;;;;;;;;;5093403;28;20085;-87
2022/05/12 05:02:57;;;;;;;48.45;21.08;;;;;;;;;;5093374;28;20043;-87
2022/05/12 05:05:22;;;;;;;51.83;22.25;;;;;;;;;;5093416;28;20020;-87
2022/05/12 05:07:48;;;;;;;46.78;20.45;;;;;;;;;;5094462;28;20104;-87
2022/05/12 05:10:13;;;;;;;49.03;23.67;;;;;;;;;;5110103;28;20080;-87
2022/05/12 05:12:40;;;;;;;49.28;21.33;;;;;;;;;;5093224;28;20055;-87
2022/05/12 05:15:05;;;;;;;47.88;21.40;;;;;;;;;;5093020;28;20070;-87
2022/05/12 05:17:31;;;;;;;41.53;19.67;;;;;;;;;;5093120;28;20047;-87
2022/05/12 05:19:56;;;;;;;45.67;20.77;;;;;;;;;;5093223;28;20028;-87
2022/05/12 05:22:21;;;;;;;43.40;21.73;;;;;;;;;;5093159;28;20020;-87
2022/05/12 05:24:47;;;;;;;42.30;20.48;;;;;;;;;;5093002;28;20023;-87
2022/05/12 05:27:12;;;;;;;48.00;20.70;;;;;;;;;;5093087;28;20102;-87
2022/05/12 05:29:40;;;;;;;43.38;19.40;;;;;;;;;;5092455;28;20015;-87
2022/05/12 05:32:06;;;;;;;42.10;18.98;;;;;;;;;;5092826;28;20024;-87
2022/05/12 05:34:31;;;;;;;36.20;17.35;;;;;;;;;;5092902;28;20531;-87
2022/05/12 05:36:56;;;;;;;42.03;18.92;;;;;;;;;;5094310;28;20015;-87
2022/05/12 05:39:23;;;;;;;37.97;17.67;;;;;;;;;;5093967;28;20159;-87
2022/05/12 05:41:49;;;;;;;32.90;16.70;;;;;;;;;;5092785;28;20066;-88
2022/05/12 05:44:14;;;;;;;37.50;17.95;;;;;;;;;;5092559;28;20089;-87
2022/05/12 05:46:39;;;;;;;33.97;17.83;;;;;;;;;;5092784;28;20463;-87
2022/05/12 05:49:05;;;;;;;38.42;18.20;;;;;;;;;;5092773;28;20425;-87
2022/05/12 05:54:14;;;;;;;39.15;17.48;;;;;;;;;;5093945;28;20031;-87
2022/05/12 05:56:39;;;;;;;35.08;16.73;;;;;;;;;;5092772;28;20024;-87
2022/05/12 05:59:05;;;;;;;32.95;17.63;;;;;;;;;;5092721;28;20024;-87
2022/05/12 06:01:30;;;;;;;35.95;17.92;;;;;;;;;;5092465;28;20024;-87
2022/05/12 06:03:57;;;;;;;34.15;16.27;;;;;;;;;;5092494;28;20021;-86
2022/05/12 06:06:22;;;;;;;27.70;14.80;;;;;;;;;;5092569;28;20024;-86
2022/05/12 06:08:48;;;;;;;34.08;14.45;;;;;;;;;;5109533;28;20028;-87
2022/05/12 06:11:14;;;;;;;35.78;16.00;;;;;;;;;;5092583;28;20517;-87
2022/05/12 06:13:39;;;;;;;29.33;13.75;;;;;;;;;;5092503;28;20029;-87
2022/05/12 06:16:05;;;;;;;27.00;13.32;;;;;;;;;;5092483;28;20024;-88
2022/05/12 06:18:30;;;;;;;38.85;15.27;;;;;;;;;;5092496;28;20028;-87
2022/05/12 06:20:55;;;;;;;28.92;14.88;;;;;;;;;;5092343;28;20048;-87
2022/05/12 06:23:20;;;;;;;35.60;14.93;;;;;;;;;;5109376;28;20048;-88
2022/05/12 06:25:46;;;;;;;34.40;14.88;;;;;;;;;;5092419;28;20024;-87
2022/05/12 06:28:11;;;;;;;33.47;14.02;;;;;;;;;;5093636;28;20472;-87
2022/05/12 06:30:38;;;;;;;33.03;12.88;;;;;;;;;;5092260;28;20073;-87
2022/05/12 06:33:03;;;;;;;32.30;14.50;;;;;;;;;;5092351;28;20486;-87
2022/05/12 06:35:29;;;;;;;26.80;13.45;;;;;;;;;;5092327;28;20020;-87
2022/05/12 06:37:54;;;;;;;33.97;13.52;;;;;;;;;;5093489;28;20464;-88
2022/05/12 06:40:20;;;;;;;29.63;14.30;;;;;;;;;;5094772;28;20028;-88
2022/05/12 06:42:45;;;;;;;31.88;15.68;;;;;;;;;;5096277;28;20067;-87
2022/05/12 06:45:12;;;;;;;32.72;14.57;;;;;;;;;;5096194;28;20051;-87
2022/05/12 06:47:38;;;;;;;27.08;14.32;;;;;;;;;;5097161;28;20414;-87
2022/05/12 06:50:03;;;;;;;31.35;14.60;;;;;;;;;;5097165;28;20020;-88
2022/05/12 06:52:29;;;;;;;30.42;15.68;;;;;;;;;;5096023;28;20077;-88
2022/05/12 06:54:54;;;;;;;32.83;14.68;;;;;;;;;;5095919;28;20032;-87
2022/05/12 06:57:24;;;;;;;37.70;14.75;;;;;;;;;;5097097;28;20103;-88
2022/05/12 06:59:49;;;;;;;28.75;14.65;;;;;;;;;;5095733;28;20024;-88
2022/05/12 07:02:15;;;;;;;30.80;14.52;;;;;;;;;;5095902;28;20447;-88
2022/05/12 07:04:40;;;;;;;28.23;13.93;;;;;;;;;;5095699;28;20028;-88
2022/05/12 07:07:05;;;;;;;30.02;14.90;;;;;;;;;;5095873;28;20020;-87
2022/05/12 07:09:31;;;;;;;23.58;13.65;;;;;;;;;;5112670;28;20028;-86
2022/05/12 07:11:56;;;;;;;30.02;12.98;;;;;;;;;;5095711;28;20027;-88
2022/05/12 07:14:22;;;;;;;30.48;12.73;;;;;;;;;;5095621;28;20044;-87
2022/05/12 07:16:47;;;;;;;25.98;11.93;;;;;;;;;;5096696;28;20050;-87
2022/05/12 07:19:15;;;;;;;20.75;9.90;;;;;;;;;;5112398;28;20037;-87
2022/05/12 07:27:09;;;;;;;22.70;9.52;;;;;;;;;;5096967;28;20096;-87
2022/05/12 07:29:34;;;;;;;23.67;10.48;;;;;;;;;;5096455;28;20043;-87
2022/05/12 07:32:00;;;;;;;18.20;7.97;;;;;;;;;;5095167;28;20186;-87
2022/05/12 07:34:26;;;;;;;14.10;7.20;;;;;;;;;;5096760;28;20026;-87
2022/05/12 07:36:52;;;;;;;15.30;7.63;;;;;;;;;;5095278;28;20020;-88
2022/05/12 07:39:17;;;;;;;17.05;7.40;;;;;;;;;;5095071;28;20024;-88
2022/05/12 07:41:43;;;;;;;27.00;8.20;;;;;;;;;;5095008;28;20043;-87
2022/05/12 07:44:09;;;;;;;28.13;7.30;;;;;;;;;;5096117;28;20057;-87
2022/05/12 07:46:35;;;;;;;16.65;7.15;;;;;;;;;;5094909;28;20047;-87
2022/05/12 07:49:00;;;;;;;20.27;6.55;;;;;;;;;;5094943;28;20101;-87
2022/05/12 07:51:25;;;;;;;13.93;5.38;;;;;;;;;;5111270;28;20019;-88
2022/05/12 07:53:51;;;;;;;14.55;6.53;;;;;;;;;;5094681;28;20020;-88
2022/05/12 07:56:17;;;;;;;15.48;6.18;;;;;;;;;;5096102;28;20375;-87
2022/05/12 07:58:43;;;;;;;16.35;6.97;;;;;;;;;;5096276;28;20447;-87
2022/05/12 08:01:09;;;;;;;16.50;6.90;;;;;;;;;;5095029;28;20111;-88
2022/05/12 08:03:34;;;;;;;16.70;6.40;;;;;;;;;;5094631;28;20020;-88
2022/05/12 08:05:59;;;;;;;17.65;4.35;;;;;;;;;;5094481;28;20065;-88
2022/05/12 08:08:25;;;;;;;18.60;4.72;;;;;;;;;;5111612;28;20024;-87
2022/05/12 08:10:50;;;;;;;13.88;4.85;;;;;;;;;;5094553;28;20020;-88
2022/05/12 08:13:16;;;;;;;13.27;4.90;;;;;;;;;;5094466;28;20028;-88
2022/05/12 08:15:46;;;;;;;17.17;4.22;;;;;;;;;;5094325;28;20028;-89
2022/05/12 08:18:11;;;;;;;11.02;4.53;;;;;;;;;;5095225;28;20065;-88
2022/05/12 08:20:38;;;;;;;7.07;3.40;;;;;;;;;;5094170;28;20024;-87
2022/05/12 08:23:03;;;;;;;11.48;3.40;;;;;;;;;;5095588;28;20015;-88
2022/05/12 08:25:29;;;;;;;12.93;5.35;;;;;;;;;;5094257;28;20012;-87
2022/05/12 08:27:54;;;;;;;13.77;4.60;;;;;;;;;;5095323;28;20032;-87
2022/05/12 08:30:19;;;;;;;9.75;4.60;;;;;;;;;;5111027;28;20114;-87
2022/05/12 08:32:45;;;;;;;10.73;4.78;;;;;;;;;;5095220;28;20024;-87
2022/05/12 08:35:10;;;;;;;10.93;3.78;;;;;;;;;;5095174;28;20019;-87
2022/05/12 08:37:36;;;;;;;11.43;3.70;;;;;;;;;;5093990;28;20019;-88
2022/05/12 08:40:02;;;;;;;11.45;3.70;;;;;;;;;;5093814;28;20024;-87
2022/05/12 08:42:46;;;;;;;15.73;3.83;;;;;;;;;;5111136;28;20069;-88
2022/05/12 08:45:13;;;;;;;7.55;3.05;;;;;;;;;;5095168;28;20024;-88
2022/05/12 08:47:42;;;;;;;10.80;3.78;;;;;;;;;;5093647;28;20022;-88
2022/05/12 08:50:08;;;;;;;11.05;4.90;;;;;;;;;;5094976;28;20016;-87
2022/05/12 08:52:48;;;;;;;12.02;5.20;;;;;;;;;;5093796;28;20360;-87
2022/05/12 08:55:34;;;;;;;12.80;5.07;;;;;;;;;;5093713;28;20425;-87
2022/05/12 08:58:05;;;;;;;9.70;4.45;;;;;;;;;;5093735;28;20474;-88
2022/05/12 09:00:33;;;;;;;11.25;4.40;;;;;;;;;;5093471;28;20111;-88
2022/05/12 09:03:04;;;;;;;14.50;4.28;;;;;;;;;;5092528;28;20458;-88
2022/05/12 09:05:37;;;;;;;13.43;3.57;;;;;;;;;;5093483;28;20026;-88
2022/05/12 09:08:24;;;;;;;11.77;3.90;;;;;;;;;;5093532;28;20020;-87
2022/05/12 09:11:03;;;;;;;10.85;3.35;;;;;;;;;;5093447;28;20031;-88
2022/05/12 09:13:34;;;;;;;9.15;3.30;;;;;;;;;;5093345;28;20030;-88
2022/05/12 09:16:05;;;;;;;9.45;3.60;;;;;;;;;;5110583;28;20074;-88
2022/05/12 09:18:33;;;;;;;14.40;3.88;;;;;;;;;;5093222;28;20019;-89
2022/05/12 09:21:17;;;;;;;9.48;4.40;;;;;;;;;;5093317;28;20035;-88
2022/05/12 09:23:43;;;;;;;13.75;4.70;;;;;;;;;;5093430;28;20107;-88
2022/05/12 09:26:27;;;;;;;15.05;4.50;;;;;;;;;;5093256;28;20058;-88
2022/05/12 09:28:54;;;;;;;9.85;3.80;;;;;;;;;;5093081;28;20024;-88
2022/05/12 09:31:19;;;;;;;10.38;3.72;;;;;;;;;;5093067;28;20023;-87
2022/05/12 09:33:47;;;;;;;11.65;3.28;;;;;;;;;;5092951;28;20028;-88
2022/05/12 09:36:16;;;;;;;16.33;4.30;;;;;;;;;;5094139;28;20073;-89
2022/05/12 09:38:44;;;;;;;6.82;2.75;;;;;;;;;;5092891;28;20024;-87
2022/05/12 09:41:21;;;;;;;12.80;3.65;;;;;;;;;;5093002;28;20016;-88
2022/05/12 09:43:48;;;;;;;8.88;2.72;;;;;;;;;;5092750;28;20028;-88
2022/05/12 09:46:17;;;;;;;12.07;2.97;;;;;;;;;;5094061;28;20095;-88
2022/05/12 09:48:43;;;;;;;8.40;3.10;;;;;;;;;;5092937;28;20031;-88
2022/05/12 09:51:23;;;;;;;8.38;2.67;;;;;;;;;;5092915;28;20023;-88
2022/05/12 09:53:49;;;;;;;8.90;3.10;;;;;;;;;;5092880;28;20162;-88
2022/05/12 09:56:34;;;;;;;8.20;2.95;;;;;;;;;;5094007;28;20024;-88
2022/05/12 09:59:02;;;;;;;8.88;2.70;;;;;;;;;;5092820;28;20108;-88
2022/05/12 10:01:30;;;;;;;5.53;2.22;;;;;;;;;;5093852;28;20097;-88
2022/05/12 10:09:49;;;;;;;12.82;2.53;;;;;;;;;;5094296;28;20035;-87
2022/05/12 10:12:14;;;;;;;7.45;2.10;;;;;;;;;;5092559;28;20016;-88
2022/05/12 10:14:54;;;;;;;9.80;1.90;;;;;;;;;;5094194;28;20028;-88
2022/05/12 10:17:34;;;;;;;14.38;2.53;;;;;;;;;;5098056;28;20379;-89
2022/05/12 10:20:04;;;;;;;10.02;3.28;;;;;;;;;;5097858;28;20062;-88
2022/05/12 10:22:37;;;;;;;10.90;3.53;;;;;;;;;;5096606;28;20016;-88
2022/05/12 10:25:02;;;;;;;;;;;;;;;;;;5097113;28;20023;-88
2022/05/12 10:27:30;;;;;;;10.10;3.85;;;;;;;;;;5096538;28;19904;-88
2022/05/12 10:30:00;;;;;;;10.07;3.40;;;;;;;;;;5097909;28;20593;-89
2022/05/12 10:32:26;;;;;;;8.57;2.95;;;;;;;;;;5096562;28;20020;-88
2022/05/12 10:35:03;;;;;;;9.98;2.50;;;;;;;;;;5097895;28;20031;-88
2022/05/12 10:37:40;;;;;;;6.43;2.80;;;;;;;;;;5096391;28;20020;-89
2022/05/12 10:40:05;;;;;;;10.52;3.03;;;;;;;;;;5096175;28;20471;-87
2022/05/12 10:42:50;;;;;;;10.38;3.35;;;;;;;;;;5097317;28;20103;-87
2022/05/12 10:45:26;;;;;;;12.85;3.67;;;;;;;;;;5096148;28;20105;-88
2022/05/12 10:47:54;;;;;;;9.90;3.00;;;;;;;;;;5097319;28;20063;-88
2022/05/12 10:50:27;;;;;;;10.15;3.20;;;;;;;;;;5095914;28;20044;-88
2022/05/12 10:53:12;;;;;;;9.27;3.80;;;;;;;;;;5095949;28;20108;-88
2022/05/12 10:55:50;;;;;;;11.90;3.85;;;;;;;;;;5085338;28;20036;-87
2022/05/12 10:58:22;;;;;;;15.07;4.38;;;;;;;;;;5095892;28;20077;-87
2022/05/12 11:00:53;;;;;;;7.50;2.97;;;;;;;;;;5097042;28;20028;-88
2022/05/12 11:03:21;;;;;;;6.75;3.30;;;;;;;;;;5095972;28;20020;-88
2022/05/12 11:05:48;;;;;;;8.63;3.53;;;;;;;;;;5095718;28;20364;-87
2022/05/12 11:08:17;;;;;;;6.88;3.17;;;;;;;;;;5095689;28;20052;-87
2022/05/12 11:10:52;;;;;;;6.00;2.70;;;;;;;;;;5096887;28;20020;-88
2022/05/12 11:13:50;;;;;;;11.93;3.35;;;;;;;;;;5096737;28;20012;-87
2022/05/12 11:16:21;;;;;;;9.52;3.00;;;;;;;;;;5083845;28;20035;-88
2022/05/12 11:18:49;;;;;;;15.90;4.03;;;;;;;;;;5095537;28;20020;-88
2022/05/12 11:21:19;;;;;;;9.55;3.25;;;;;;;;;;5096867;28;20467;-88
2022/05/12 11:24:03;;;;;;;9.90;4.10;;;;;;;;;;5096691;28;20105;-87
2022/05/12 11:26:47;;;;;;;12.38;4.03;;;;;;;;;;5094278;28;20020;-87
2022/05/12 11:29:43;;;;;;;7.25;2.80;;;;;;;;;;5095400;28;20127;-88
2022/05/12 11:32:20;;;;;;;11.38;2.80;;;;;;;;;;5095262;28;20057;-88
2022/05/12 11:34:48;;;;;;;10.10;3.63;;;;;;;;;;5095402;28;20042;-88
2022/05/12 11:37:34;;;;;;;7.68;3.00;;;;;;;;;;5096657;28;20108;-88
2022/05/12 11:40:02;;;;;;;7.78;2.70;;;;;;;;;;5112021;28;20016;-88
2022/05/12 11:44:23;;;;;;;5.93;2.88;;;;;;;;;;5096124;28;20047;-88
2022/05/12 11:45:31;;;;;;;11.32;2.97;;;;;;;;;;5096253;28;20022;-87
2022/05/12 11:48:15;;;;;;;7.72;3.25;;;;;;;;;;5096219;28;20008;-88
2022/05/12 11:50:53;;;;;;;8.90;3.20;;;;;;;;;;5094911;28;20498;-88
2022/05/12 11:53:20;;;;;;;10.77;3.40;;;;;;;;;;5095020;28;20073;-88
2022/05/12 11:55:57;;;;;;;9.40;3.05;;;;;;;;;;5094844;28;20475;-88
2022/05/12 11:58:48;;;;;;;10.13;3.38;;;;;;;;;;5111846;28;20024;-87
2022/05/12 12:01:20;;;;;;;11.45;3.90;;;;;;;;;;5093509;28;20130;-87
2022/05/12 12:03:47;;;;;;;11.48;3.38;;;;;;;;;;5094776;28;20024;-89
2022/05/12 12:06:32;;;;;;;8.43;3.47;;;;;;;;;;5095761;28;20020;-88
2022/05/12 12:09:18;;;;;;;11.35;3.63;;;;;;;;;;5094473;28;20012;-87
2022/05/12 12:11:43;;;;;;;9.45;3.70;;;;;;;;;;5094441;28;20024;-88
2022/05/12 12:14:09;;;;;;;10.00;3.97;;;;;;;;;;5095708;28;20035;-88
2022/05/12 12:16:53;;;;;;;11.57;4.28;;;;;;;;;;5111357;28;20416;-88
2022/05/12 12:19:37;;;;;;;8.48;3.80;;;;;;;;;;5095913;28;20078;-89
2022/05/12 12:22:17;;;;;;;12.90;4.18;;;;;;;;;;5094495;28;20059;-89
2022/05/12 12:24:48;;;;;;;10.80;4.13;;;;;;;;;;5094573;28;20035;-89
2022/05/12 12:27:16;;;;;;;9.73;4.40;;;;;;;;;;5094537;28;20055;-88
2022/05/12 12:29:46;;;;;;;14.65;4.05;;;;;;;;;;5094430;28;20028;-89
2022/05/12 12:32:24;;;;;;;11.95;4.47;;;;;;;;;;5094443;28;20114;-90
2022/05/12 12:34:51;;;;;;;10.35;4.70;;;;;;;;;;5094409;28;20029;-88
2022/05/12 12:37:35;;;;;;;11.32;4.75;;;;;;;;;;5094060;28;20111;-89
2022/05/12 12:40:01;;;;;;;9.48;4.32;;;;;;;;;;5094177;28;20024;-89
2022/05/12 12:42:28;;;;;;;10.88;3.92;;;;;;;;;;5095274;28;20038;-89
2022/05/12 12:44:58;;;;;;;12.82;4.32;;;;;;;;;;5094254;28;20027;-89
2022/05/12 12:47:35;;;;;;;12.38;5.03;;;;;;;;;;5093953;28;20023;-89
2022/05/12 12:50:11;;;;;;;13.13;4.70;;;;;;;;;;5094041;28;20391;-89
2022/05/12 12:52:41;;;;;;;14.80;4.65;;;;;;;;;;5095369;28;20097;-89
2022/05/12 12:57:58;;;;;;;13.93;4.95;;;;;;;;;;5095621;28;20378;-90
2022/05/12 13:00:29;;;;;;;8.88;3.70;;;;;;;;;;5093742;28;20032;-89
2022/05/12 13:03:03;;;;;;;12.10;3.88;;;;;;;;;;5093820;28;20413;-89
2022/05/12 13:05:29;;;;;;;11.73;3.90;;;;;;;;;;5093515;28;20016;-88
2022/05/12 13:07:59;;;;;;;11.35;3.55;;;;;;;;;;5093487;28;20012;-88
2022/05/12 13:10:25;;;;;;;11.57;3.97;;;;;;;;;;5093481;28;20023;-89
2022/05/12 13:12:58;;;;;;;12.90;3.67;;;;;;;;;;5094835;28;20016;-89
2022/05/12 13:15:24;;;;;;;13.50;3.65;;;;;;;;;;5093559;28;20125;-89
2022/05/12 13:17:51;;;;;;;11.02;3.60;;;;;;;;;;5094856;28;20051;-88
2022/05/12 13:20:18;;;;;;;7.80;3.30;;;;;;;;;;5094591;28;20020;-89
2022/05/12 13:22:51;;;;;;;8.45;3.35;;;;;;;;;;5093220;28;20487;-89
2022/05/12 13:25:20;;;;;;;11.15;3.78;;;;;;;;;;5110271;28;20020;-88
2022/05/12 13:27:46;;;;;;;9.50;4.03;;;;;;;;;;5094498;28;20469;-88
2022/05/12 13:30:19;;;;;;;10.10;3.45;;;;;;;;;;5093169;28;20044;-88
2022/05/12 13:32:44;;;;;;;9.93;3.50;;;;;;;;;;5093153;28;20027;-88
2022/05/12 13:35:17;;;;;;;10.77;3.20;;;;;;;;;;5093225;28;20383;-90
2022/05/12 13:37:44;;;;;;;10.82;2.88;;;;;;;;;;5094532;28;20387;-88
2022/05/12 13:40:12;;;;;;;6.25;2.53;;;;;;;;;;5093092;28;20559;-90
2022/05/12 13:42:38;;;;;;;11.65;3.22;;;;;;;;;;5094360;28;20063;-89
2022/05/12 13:45:08;;;;;;;7.43;2.60;;;;;;;;;;5093139;28;20020;-89
2022/05/12 13:47:35;;;;;;;8.32;2.30;;;;;;;;;;5094436;28;20158;-89
2022/05/12 13:50:03;;;;;;;11.23;2.80;;;;;;;;;;5109527;28;20024;-88
2022/05/12 13:52:38;;;;;;;13.70;2.67;;;;;;;;;;5104448;28;20024;-88
2022/05/12 13:55:06;;;;;;;11.23;2.63;;;;;;;;;;5094445;28;20490;-88
2022/05/12 13:57:38;;;;;;;8.55;2.60;;;;;;;;;;5092852;28;20024;-89
2022/05/12 14:00:12;;;;;;;16.13;2.50;;;;;;;;;;5092822;28;20031;-89
2022/05/12 14:02:38;;;;;;;7.90;1.90;;;;;;;;;;5092991;28;20020;-89
2022/05/12 14:05:04;;;;;;;10.35;2.00;;;;;;;;;;5092847;28;20153;-88
2022/05/12 14:07:30;;;;;;;8.48;2.40;;;;;;;;;;5093877;28;20027;-88
2022/05/12 14:09:57;;;;;;;4.88;2.53;;;;;;;;;;5092520;28;20031;-88
2022/05/12 14:12:24;;;;;;;6.00;2.17;;;;;;;;;;5092729;28;20119;-89
2022/05/12 14:20:21;;;;;;;9.48;2.05;;;;;;;;;;5094373;28;20379;-88
2022/05/12 14:22:46;;;;;;;9.55;2.30;;;;;;;;;;5092807;28;20086;-88
2022/05/12 14:25:12;;;;;;;4.32;1.58;;;;;;;;;;5092590;28;20035;-89
2022/05/12 14:27:38;;;;;;;4.97;1.50;;;;;;;;;;5092680;28;20455;-89
2022/05/12 14:30:03;;;;;;;8.20;2.15;;;;;;;;;;5092793;28;20012;-88
2022/05/12 14:32:35;;;;;;;7.15;1.75;;;;;;;;;;5092717;28;20103;-90
2022/05/12 14:35:00;;;;;;;9.80;1.73;;;;;;;;;;5093899;28;20020;-89
2022/05/12 14:37:25;;;;;;;8.05;1.42;;;;;;;;;;5092604;28;20074;-89
2022/05/12 14:39:50;;;;;;;8.32;2.05;;;;;;;;;;5092435;28;20119;-89
2022/05/12 14:42:16;;;;;;;7.03;1.48;;;;;;;;;;5094120;28;20467;-89
2022/05/12 14:44:41;;;;;;;7.68;2.83;;;;;;;;;;5092529;28;20038;-88
2022/05/12 14:47:07;;;;;;;10.38;1.92;;;;;;;;;;5092570;28;20025;-88
2022/05/12 14:49:41;;;;;;;6.28;1.60;;;;;;;;;;5093536;28;20495;-88
2022/05/12 14:52:08;;;;;;;14.90;1.70;;;;;;;;;;5093789;28;20020;-88
2022/05/12 14:54:33;;;;;;;7.13;1.55;;;;;;;;;;5092596;28;20354;-88
2022/05/12 14:56:58;;;;;;;9.52;1.73;;;;;;;;;;5093514;28;20095;-89
2022/05/12 14:59:24;;;;;;;7.20;1.38;;;;;;;;;;5093650;28;20038;-88